createdAt,value
2022-08-23T00:00:00.504Z,24.30
2022-08-23T00:02:33.546Z,24.30
2022-08-23T00:05:07.814Z,24.40
2022-08-23T00:07:42.199Z,24.20
2022-08-23T00:10:14.382Z,24.10
2022-08-23T00:12:42.588Z,24.10
2022-08-23T00:15:12.978Z,24.30
2022-08-23T00:17:39.912Z,24.30
2022-08-23T00:20:09.402Z,24.30
2022-08-23T00:22:37.411Z,24.20
2022-08-23T00:25:05.869Z,23.90
2022-08-23T00:27:33.474Z,23.80
2022-08-23T00:30:01.634Z,23.80
2022-08-23T00:32:32.205Z,23.70
2022-08-23T00:35:00.521Z,23.70
2022-08-23T00:37:29.739Z,23.60
2022-08-23T00:39:56.790Z,23.70
2022-08-23T00:42:42.260Z,23.70
2022-08-23T00:45:31.161Z,23.70
2022-08-23T00:47:58.814Z,23.60
2022-08-23T00:50:32.837Z,23.40
2022-08-23T00:53:08.217Z,23.20
2022-08-23T00:55:36.660Z,23.30
2022-08-23T00:58:04.177Z,23.30
2022-08-23T01:00:32.577Z,23.30
2022-08-23T01:03:00.055Z,23.40
2022-08-23T01:05:32.372Z,23.20
2022-08-23T01:08:00.125Z,23.30
2022-08-23T01:10:37.281Z,23.40
2022-08-23T01:13:16.730Z,23.40
2022-08-23T01:15:55.713Z,23.20
2022-08-23T01:18:26.557Z,23.10
2022-08-23T01:21:10.356Z,23.10
2022-08-23T01:23:44.673Z,23.10
2022-08-23T01:26:14.424Z,23.30
2022-08-23T01:28:51.230Z,23.30
2022-08-23T01:31:19.346Z,23.20
2022-08-23T01:34:02.255Z,23.20
2022-08-23T01:36:30.232Z,23.30
2022-08-23T01:38:57.542Z,23.20
2022-08-23T01:41:24.542Z,23.10
2022-08-23T01:43:51.963Z,23.00
2022-08-23T01:46:23.079Z,22.90
2022-08-23T01:48:52.168Z,22.90
2022-08-23T01:51:20.624Z,22.90
2022-08-23T01:53:47.756Z,23.00
2022-08-23T01:56:19.797Z,22.80
2022-08-23T01:58:56.567Z,22.80
2022-08-23T02:01:26.776Z,23.00
2022-08-23T02:04:04.242Z,23.20
2022-08-23T02:06:32.384Z,23.30
2022-08-23T02:09:04.373Z,23.40
2022-08-23T02:11:38.437Z,23.40
2022-08-23T02:14:08.880Z,23.40
2022-08-23T02:17:02.953Z,23.30
2022-08-23T02:19:32.828Z,23.30
2022-08-23T02:22:00.178Z,23.20
2022-08-23T02:24:27.315Z,23.20
2022-08-23T02:26:57.267Z,23.20
2022-08-23T02:29:29.512Z,23.20
2022-08-23T02:31:58.615Z,23.10
2022-08-23T02:34:27.892Z,23.00
2022-08-23T02:36:55.148Z,23.00
2022-08-23T02:39:23.560Z,23.20
2022-08-23T02:41:51.922Z,23.20
2022-08-23T02:44:20.831Z,23.00
2022-08-23T02:46:48.423Z,23.00
2022-08-23T02:49:16.432Z,22.90
2022-08-23T02:51:43.831Z,22.80
2022-08-23T02:54:11.182Z,22.80
2022-08-23T02:56:38.267Z,22.70
2022-08-23T02:59:06.843Z,22.80
2022-08-23T03:01:38.313Z,22.90
2022-08-23T03:04:40.318Z,22.90
2022-08-23T03:07:07.349Z,22.80
2022-08-23T03:09:35.797Z,22.50
2022-08-23T03:12:02.915Z,22.60
2022-08-23T03:14:32.708Z,22.70
2022-08-23T03:17:00.900Z,22.80
2022-08-23T03:19:27.997Z,22.80
2022-08-23T03:21:54.963Z,22.80
2022-08-23T03:24:22.852Z,22.90
2022-08-23T03:26:50.188Z,22.90
2022-08-23T03:29:17.645Z,22.90
2022-08-23T03:32:00.501Z,23.00
2022-08-23T03:34:29.457Z,23.00
2022-08-23T03:36:59.412Z,22.70
2022-08-23T03:39:26.834Z,22.80
2022-08-23T03:41:55.423Z,22.70
2022-08-23T03:44:22.704Z,22.80
2022-08-23T03:46:50.959Z,22.80
2022-08-23T03:49:17.908Z,22.90
2022-08-23T03:51:51.918Z,22.80
2022-08-23T03:54:19.476Z,22.90
2022-08-23T03:57:05.630Z,22.90
2022-08-23T03:59:35.709Z,22.80
2022-08-23T04:02:06.033Z,22.60
2022-08-23T04:04:33.423Z,22.40
2022-08-23T04:07:26.877Z,22.30
2022-08-23T04:09:56.576Z,22.40
2022-08-23T04:12:27.387Z,22.30
2022-08-23T04:14:57.455Z,22.20
2022-08-23T04:17:25.064Z,22.40
2022-08-23T04:19:53.011Z,22.50
2022-08-23T04:22:20.865Z,22.30
2022-08-23T04:24:48.369Z,22.20
2022-08-23T04:27:16.398Z,22.10
2022-08-23T04:29:44.612Z,22.20
2022-08-23T04:32:12.073Z,22.30
2022-08-23T04:34:42.402Z,22.30
2022-08-23T04:37:13.717Z,22.20
2022-08-23T04:39:59.786Z,22.20
2022-08-23T04:42:33.249Z,22.10
2022-08-23T04:45:01.257Z,22.00
2022-08-23T04:47:28.380Z,22.10
2022-08-23T04:50:01.367Z,22.20
2022-08-23T04:52:28.540Z,22.30
2022-08-23T04:54:56.576Z,22.20
2022-08-23T04:57:45.745Z,22.20
2022-08-23T05:00:17.416Z,22.30
2022-08-23T05:02:53.111Z,22.30
2022-08-23T05:05:20.741Z,22.30
2022-08-23T05:07:48.631Z,22.30
2022-08-23T05:10:16.741Z,22.20
2022-08-23T05:12:50.772Z,22.30
2022-08-23T05:15:20.416Z,22.50
2022-08-23T05:17:53.339Z,22.90
2022-08-23T05:20:20.565Z,23.40
2022-08-23T05:22:47.460Z,23.80
2022-08-23T05:25:45.825Z,24.20
2022-08-23T05:28:13.817Z,24.60
2022-08-23T05:30:42.324Z,24.90
2022-08-23T05:33:23.915Z,25.20
2022-08-23T05:35:51.246Z,25.50
2022-08-23T05:38:20.758Z,25.60
2022-08-23T05:40:55.160Z,25.70
2022-08-23T05:43:22.727Z,25.80
2022-08-23T05:46:03.590Z,25.90
2022-08-23T05:48:34.026Z,26.00
2022-08-23T05:51:15.421Z,26.00
2022-08-23T05:53:43.174Z,26.30
2022-08-23T05:56:21.908Z,26.40
2022-08-23T05:58:50.972Z,26.50
2022-08-23T06:01:22.224Z,26.60
2022-08-23T06:03:53.049Z,26.70
2022-08-23T06:06:21.132Z,26.90
2022-08-23T06:08:48.816Z,27.00
2022-08-23T06:11:22.820Z,27.20
2022-08-23T06:13:53.983Z,27.20
2022-08-23T06:16:24.316Z,26.90
2022-08-23T06:18:52.284Z,27.00
2022-08-23T06:21:38.595Z,27.10
2022-08-23T06:24:07.218Z,27.40
2022-08-23T06:26:41.504Z,27.60
2022-08-23T06:29:12.068Z,27.80
2022-08-23T06:31:51.060Z,27.90
2022-08-23T06:34:36.633Z,27.90
2022-08-23T06:37:14.567Z,28.20
2022-08-23T06:39:59.933Z,28.30
2022-08-23T06:42:40.762Z,28.20
2022-08-23T06:45:09.598Z,28.10
2022-08-23T06:47:43.362Z,28.10
2022-08-23T06:50:10.942Z,28.20
2022-08-23T06:52:56.269Z,28.40
2022-08-23T06:55:43.897Z,28.60
2022-08-23T06:58:39.760Z,28.70
2022-08-23T07:01:45.532Z,28.90
2022-08-23T07:04:39.280Z,28.90
2022-08-23T07:07:37.692Z,28.80
2022-08-23T07:10:10.074Z,29.00
2022-08-23T07:12:42.627Z,29.00
2022-08-23T07:15:12.871Z,29.00
2022-08-23T07:17:43.168Z,29.10
2022-08-23T07:20:10.491Z,29.10
2022-08-23T07:22:40.516Z,29.20
2022-08-23T07:25:08.884Z,29.20
2022-08-23T07:27:37.307Z,29.20
2022-08-23T07:30:08.886Z,29.20
2022-08-23T07:32:38.224Z,29.10
2022-08-23T07:35:21.572Z,29.10
2022-08-23T07:37:50.146Z,29.20
2022-08-23T07:40:20.634Z,29.30
2022-08-23T07:42:54.483Z,29.30
2022-08-23T07:45:22.327Z,29.10
2022-08-23T07:47:54.318Z,29.00
2022-08-23T07:50:22.670Z,29.00
2022-08-23T07:52:53.168Z,29.10
2022-08-23T07:55:20.153Z,29.10
2022-08-23T07:58:26.658Z,29.20
2022-08-23T08:01:26.764Z,29.30
2022-08-23T08:03:56.535Z,29.30
2022-08-23T08:06:31.871Z,29.20
2022-08-23T08:08:59.431Z,29.20
2022-08-23T08:11:33.675Z,29.10
2022-08-23T08:14:07.193Z,29.10
2022-08-23T08:16:42.587Z,29.10
2022-08-23T08:19:15.108Z,28.90
2022-08-23T08:22:13.151Z,28.90
2022-08-23T08:24:58.583Z,28.80
2022-08-23T08:27:25.695Z,28.70
2022-08-23T08:29:52.624Z,28.70
2022-08-23T08:32:23.040Z,28.60
2022-08-23T08:34:50.465Z,28.60
2022-08-23T08:37:17.511Z,28.60
2022-08-23T08:39:47.227Z,28.60
2022-08-23T08:42:31.714Z,28.50
2022-08-23T08:45:00.959Z,28.40
2022-08-23T08:47:46.893Z,28.30
2022-08-23T08:50:38.062Z,28.30
2022-08-23T08:53:36.934Z,28.40
2022-08-23T08:56:23.324Z,28.30
2022-08-23T08:59:06.543Z,28.20
2022-08-23T09:01:37.522Z,28.30
2022-08-23T09:04:06.445Z,28.30
2022-08-23T09:06:53.170Z,28.30
2022-08-23T09:09:47.860Z,28.30
2022-08-23T09:12:22.578Z,28.20
2022-08-23T09:15:04.770Z,28.20
2022-08-23T09:17:38.934Z,28.20
2022-08-23T09:20:07.363Z,28.30
2022-08-23T09:22:43.936Z,28.40
2022-08-23T09:25:20.708Z,28.40
2022-08-23T09:27:58.059Z,28.50
2022-08-23T09:30:50.379Z,28.50
2022-08-23T09:33:27.188Z,28.50
2022-08-23T09:36:27.047Z,28.40
2022-08-23T09:39:24.376Z,28.50
2022-08-23T09:42:08.592Z,28.50
2022-08-23T09:44:41.186Z,28.60
2022-08-23T09:47:17.151Z,28.50
2022-08-23T09:49:52.159Z,28.50
2022-08-23T09:52:33.768Z,28.50
2022-08-23T09:55:09.468Z,28.60
2022-08-23T09:57:48.051Z,28.60
2022-08-23T10:00:20.117Z,28.70
2022-08-23T10:02:57.198Z,28.70
2022-08-23T10:05:51.358Z,28.80
2022-08-23T10:08:27.340Z,28.70
2022-08-23T10:11:06.939Z,28.80
2022-08-23T10:13:38.839Z,28.80
2022-08-23T10:16:12.303Z,28.80
2022-08-23T10:19:01.474Z,28.70
2022-08-23T10:21:42.008Z,28.80
2022-08-23T10:24:34.038Z,28.80
2022-08-23T10:27:45.026Z,28.90
2022-08-23T10:30:13.471Z,28.90
2022-08-23T10:32:54.852Z,28.80
2022-08-23T10:35:47.191Z,28.90
2022-08-23T10:38:37.658Z,28.90
2022-08-23T10:41:06.603Z,28.90
2022-08-23T10:43:52.130Z,28.90
2022-08-23T10:46:21.846Z,28.90
2022-08-23T10:48:59.513Z,28.90
2022-08-23T10:51:34.103Z,29.10
2022-08-23T10:54:47.007Z,29.00
2022-08-23T10:57:21.721Z,29.00
2022-08-23T10:59:52.597Z,29.10
2022-08-23T11:02:25.321Z,29.10
2022-08-23T11:05:28.110Z,29.10
2022-08-23T11:08:30.690Z,29.10
2022-08-23T11:10:59.248Z,29.10
2022-08-23T11:13:34.300Z,29.10
2022-08-23T11:16:15.514Z,29.20
2022-08-23T11:18:48.625Z,29.30
2022-08-23T11:21:24.922Z,29.30
2022-08-23T11:23:59.788Z,29.30
2022-08-23T11:26:36.199Z,29.40
2022-08-23T11:29:06.157Z,29.40
2022-08-23T11:31:47.270Z,29.50
2022-08-23T11:34:29.507Z,29.40
2022-08-23T11:37:20.658Z,29.40
2022-08-23T11:39:58.550Z,29.40
2022-08-23T11:42:42.397Z,29.50
2022-08-23T11:45:42.710Z,29.50
2022-08-23T11:48:14.810Z,29.50
2022-08-23T11:51:02.974Z,29.50
2022-08-23T11:53:54.779Z,29.60
2022-08-23T11:56:28.288Z,29.60
2022-08-23T11:59:17.200Z,29.70
2022-08-23T12:01:45.585Z,29.60
2022-08-23T12:04:37.713Z,29.60
2022-08-23T12:07:12.484Z,29.70
2022-08-23T12:09:42.415Z,29.70
2022-08-23T12:12:32.521Z,29.80
2022-08-23T12:15:08.102Z,29.80
2022-08-23T12:17:34.963Z,29.90
2022-08-23T12:20:17.000Z,29.80
2022-08-23T12:22:59.377Z,29.90
2022-08-23T12:25:27.075Z,30.00
2022-08-23T12:28:01.696Z,30.00
2022-08-23T12:30:48.801Z,30.00
2022-08-23T12:33:45.844Z,30.00
2022-08-23T12:36:32.529Z,30.10
2022-08-23T12:39:22.391Z,30.00
2022-08-23T12:41:55.763Z,30.10
2022-08-23T12:44:26.635Z,30.10
2022-08-23T12:46:53.786Z,30.10
2022-08-23T12:49:34.742Z,30.10
2022-08-23T12:52:08.141Z,30.20
2022-08-23T12:54:39.193Z,30.20
2022-08-23T12:57:11.591Z,30.30
2022-08-23T13:00:01.509Z,30.30
2022-08-23T13:02:59.071Z,30.30
2022-08-23T13:05:26.183Z,30.30
2022-08-23T13:07:53.750Z,30.20
2022-08-23T13:10:20.920Z,30.30
2022-08-23T13:12:48.175Z,30.20
2022-08-23T13:15:45.054Z,30.20
2022-08-23T13:18:41.685Z,30.40
2022-08-23T13:21:25.510Z,30.40
2022-08-23T13:23:55.165Z,30.50
2022-08-23T13:26:39.747Z,30.50
2022-08-23T13:29:15.829Z,30.40
2022-08-23T13:32:02.678Z,30.40
2022-08-23T13:34:50.109Z,30.50
2022-08-23T13:37:26.668Z,30.50
2022-08-23T13:40:06.384Z,30.50
2022-08-23T13:42:36.623Z,30.50
2022-08-23T13:45:16.133Z,30.50
2022-08-23T13:48:01.818Z,30.50
2022-08-23T13:50:34.975Z,30.60
2022-08-23T13:53:17.459Z,30.50
2022-08-23T13:55:47.273Z,30.50
2022-08-23T13:58:25.404Z,30.50
2022-08-23T14:00:55.706Z,30.50
2022-08-23T14:03:24.410Z,30.50
2022-08-23T14:05:52.828Z,30.50
2022-08-23T14:08:20.581Z,30.60
2022-08-23T14:10:47.748Z,30.60
2022-08-23T14:13:16.949Z,30.60
2022-08-23T14:15:56.517Z,30.60
2022-08-23T14:18:23.787Z,30.70
2022-08-23T14:20:51.358Z,30.70
2022-08-23T14:23:18.991Z,30.70
2022-08-23T14:25:47.270Z,30.80
2022-08-23T14:28:14.213Z,30.80
2022-08-23T14:30:41.163Z,30.80
2022-08-23T14:33:08.202Z,30.80
2022-08-23T14:35:38.141Z,30.80
2022-08-23T14:38:05.424Z,30.80
2022-08-23T14:40:33.252Z,30.80
2022-08-23T14:43:00.414Z,30.80
2022-08-23T14:45:27.461Z,30.90
2022-08-23T14:47:54.316Z,30.90
2022-08-23T14:50:21.355Z,31.00
2022-08-23T14:52:48.471Z,31.00
2022-08-23T14:55:15.576Z,31.00
2022-08-23T14:57:42.693Z,31.00
2022-08-23T15:00:14.031Z,31.00
2022-08-23T15:02:46.248Z,31.00
2022-08-23T15:05:14.284Z,30.90
2022-08-23T15:07:41.245Z,30.90
2022-08-23T15:10:10.059Z,30.80
2022-08-23T15:15:24.650Z,30.80
2022-08-23T15:18:01.035Z,30.80
2022-08-23T15:20:34.300Z,30.90
2022-08-23T15:23:02.240Z,30.80
2022-08-23T15:25:30.965Z,30.90
2022-08-23T15:27:58.138Z,31.00
2022-08-23T15:30:25.460Z,31.00
2022-08-23T15:32:56.849Z,30.90
2022-08-23T15:35:26.028Z,31.00
2022-08-23T15:37:54.765Z,30.90
2022-08-23T15:40:23.167Z,30.90
2022-08-23T15:42:50.139Z,31.00
2022-08-23T15:45:17.155Z,30.90
2022-08-23T15:47:49.930Z,30.90
2022-08-23T15:50:19.603Z,30.90
2022-08-23T15:52:46.527Z,31.00
2022-08-23T15:55:13.763Z,30.90
2022-08-23T15:57:45.820Z,31.00
2022-08-23T16:00:14.888Z,30.80
2022-08-23T16:03:06.462Z,30.80
2022-08-23T16:05:31.132Z,30.80
2022-08-23T16:07:58.262Z,30.80
2022-08-23T16:10:28.092Z,30.70
2022-08-23T16:12:55.729Z,30.70
2022-08-23T16:15:22.946Z,30.70
2022-08-23T16:17:50.029Z,30.60
2022-08-23T16:20:17.678Z,30.60
2022-08-23T16:22:44.936Z,30.60
2022-08-23T16:25:11.919Z,30.60
2022-08-23T16:27:38.955Z,30.60
2022-08-23T16:30:07.418Z,30.60
2022-08-23T16:49:14.908Z,30.50
2022-08-23T16:51:42.802Z,30.50
2022-08-23T16:54:09.691Z,30.50
2022-08-23T16:56:38.240Z,30.50
2022-08-23T16:59:07.818Z,30.50
2022-08-23T17:01:49.747Z,30.50
2022-08-23T17:04:18.438Z,30.40
2022-08-23T17:06:46.275Z,30.40
2022-08-23T17:09:14.734Z,30.40
2022-08-23T17:11:43.084Z,30.30
2022-08-23T17:14:12.197Z,30.30
2022-08-23T17:16:39.682Z,30.30
2022-08-23T17:19:06.604Z,30.30
2022-08-23T17:21:33.479Z,30.20
2022-08-23T17:24:00.452Z,30.10
2022-08-23T17:26:27.383Z,30.10
2022-08-23T17:28:56.522Z,30.00
2022-08-23T17:31:24.409Z,30.10
2022-08-23T17:33:55.444Z,30.10
2022-08-23T17:36:49.699Z,30.10
2022-08-23T17:39:21.239Z,30.10
2022-08-23T17:41:48.346Z,30.10
2022-08-23T17:44:15.669Z,30.00
2022-08-23T17:46:44.833Z,30.10
2022-08-23T17:49:12.756Z,30.00
2022-08-23T17:51:41.216Z,29.90
2022-08-23T17:54:10.125Z,29.90
2022-08-23T17:56:37.921Z,29.80
2022-08-23T17:59:07.511Z,29.90
2022-08-23T18:01:34.639Z,29.80
2022-08-23T18:04:05.584Z,29.70
2022-08-23T18:06:33.646Z,29.70
2022-08-23T18:09:02.810Z,29.70
2022-08-23T18:11:31.814Z,29.60
2022-08-23T18:13:58.737Z,29.60
2022-08-23T18:16:33.172Z,29.50
2022-08-23T18:19:03.900Z,29.40
2022-08-23T18:21:31.170Z,29.20
2022-08-23T18:23:58.993Z,29.10
2022-08-23T18:26:45.455Z,29.10
2022-08-23T18:29:14.707Z,29.00
2022-08-23T18:31:43.654Z,28.90
2022-08-23T18:34:11.996Z,28.80
2022-08-23T18:36:39.129Z,28.70
2022-08-23T18:39:08.059Z,28.70
2022-08-23T18:41:35.612Z,28.70
2022-08-23T18:44:06.050Z,28.60
2022-08-23T18:46:37.428Z,28.60
2022-08-23T18:49:04.953Z,28.60
2022-08-23T18:51:31.976Z,28.40
2022-08-23T18:53:59.364Z,28.40
2022-08-23T18:56:26.885Z,28.40
2022-08-23T18:58:54.475Z,28.40
2022-08-23T19:01:30.086Z,28.30
2022-08-23T19:03:59.648Z,28.30
2022-08-23T19:06:27.906Z,28.20
2022-08-23T19:08:55.201Z,28.20
2022-08-23T19:11:23.344Z,28.10
2022-08-23T19:13:51.197Z,27.90
2022-08-23T19:16:19.591Z,27.80
2022-08-23T19:18:52.832Z,27.80
2022-08-23T19:21:23.258Z,27.80
2022-08-23T19:23:53.818Z,27.80
2022-08-23T19:26:26.209Z,27.80
2022-08-23T19:28:53.081Z,27.80
2022-08-23T19:31:20.133Z,27.70
2022-08-23T19:33:47.079Z,27.70
2022-08-23T19:36:35.827Z,27.60
2022-08-23T19:39:01.033Z,27.60
2022-08-23T19:41:29.107Z,27.60
2022-08-23T19:43:55.983Z,27.60
2022-08-23T19:46:22.909Z,27.60
2022-08-23T19:48:51.273Z,27.60
2022-08-23T19:51:19.751Z,27.60
2022-08-23T19:54:11.055Z,27.60
2022-08-23T19:56:44.857Z,27.60
2022-08-23T19:59:16.388Z,27.40
2022-08-23T20:01:43.463Z,27.30
2022-08-23T20:04:10.751Z,27.30
2022-08-23T20:06:37.838Z,27.30
2022-08-23T20:09:06.392Z,27.30
2022-08-23T20:11:33.390Z,27.30
2022-08-23T20:14:05.407Z,27.30
2022-08-23T20:16:33.080Z,27.30
2022-08-23T20:19:01.182Z,27.30
2022-08-23T20:21:28.410Z,27.30
2022-08-23T20:24:02.260Z,27.30
2022-08-23T20:26:38.348Z,27.20
2022-08-23T20:29:05.537Z,27.20
2022-08-23T20:31:36.830Z,27.20
2022-08-23T20:34:05.680Z,27.00
2022-08-23T20:36:33.401Z,27.00
2022-08-23T20:39:01.435Z,26.80
2022-08-23T20:41:30.552Z,26.80
2022-08-23T20:43:57.954Z,26.70
2022-08-23T20:46:25.607Z,26.80
2022-08-23T20:48:53.175Z,26.80
2022-08-23T20:51:21.065Z,26.70
2022-08-23T20:53:47.996Z,26.80
2022-08-23T20:56:15.043Z,26.80
2022-08-23T20:58:42.401Z,26.70
2022-08-23T21:01:11.165Z,26.50
2022-08-23T21:03:39.054Z,26.40
2022-08-23T21:06:19.945Z,26.40
2022-08-23T21:08:53.637Z,26.40
2022-08-23T21:11:22.863Z,26.30
2022-08-23T21:13:49.980Z,26.20
2022-08-23T21:16:17.959Z,26.10
2022-08-23T21:18:45.822Z,26.10
2022-08-23T21:21:13.167Z,26.20
2022-08-23T21:23:40.052Z,26.00
2022-08-23T21:26:07.760Z,26.10
2022-08-23T21:28:36.248Z,26.20
2022-08-23T21:31:10.026Z,26.10
2022-08-23T21:33:40.244Z,26.10
2022-08-23T21:36:11.206Z,26.00
2022-08-23T21:38:38.672Z,25.80
2022-08-23T21:41:11.296Z,25.70
2022-08-23T21:43:38.803Z,25.70
2022-08-23T21:46:07.335Z,25.70
2022-08-23T21:48:34.677Z,25.70
2022-08-23T21:51:01.818Z,25.60
2022-08-23T21:53:28.685Z,25.50
2022-08-23T21:55:55.697Z,25.50
2022-08-23T21:58:22.620Z,25.50
2022-08-23T22:00:49.520Z,25.60
2022-08-23T22:03:16.413Z,25.70
2022-08-23T22:05:44.858Z,25.50
2022-08-23T22:08:14.267Z,25.40
2022-08-23T22:10:48.136Z,25.40
2022-08-23T22:13:23.661Z,25.30
2022-08-23T22:15:50.607Z,25.50
2022-08-23T22:18:20.834Z,25.60
2022-08-23T22:20:47.719Z,25.70
2022-08-23T22:23:14.671Z,25.60
2022-08-23T22:25:41.722Z,25.40
2022-08-23T22:28:08.765Z,25.40
2022-08-23T22:30:36.016Z,25.30
2022-08-23T22:33:03.133Z,24.90
2022-08-23T22:35:34.375Z,24.90
2022-08-23T22:38:18.115Z,24.80
2022-08-23T22:40:50.578Z,24.90
2022-08-23T22:43:19.082Z,24.80
2022-08-23T22:45:57.434Z,25.00
2022-08-23T22:48:25.111Z,25.10
2022-08-23T22:51:02.788Z,25.10
2022-08-23T22:53:30.001Z,25.10
2022-08-23T22:55:56.825Z,25.10
2022-08-23T22:58:23.706Z,25.10
2022-08-23T23:00:51.594Z,25.20
2022-08-23T23:03:19.428Z,25.10
2022-08-23T23:05:46.370Z,24.90
2022-08-23T23:08:28.472Z,24.90
2022-08-23T23:11:01.302Z,24.80
2022-08-23T23:13:31.523Z,24.60
2022-08-23T23:16:02.182Z,24.60
2022-08-23T23:18:29.642Z,24.60
2022-08-23T23:21:01.652Z,24.50
2022-08-23T23:23:30.121Z,24.60
2022-08-23T23:25:58.379Z,24.60
2022-08-23T23:28:25.560Z,24.70
2022-08-23T23:30:54.639Z,24.60
2022-08-23T23:33:22.394Z,24.70
2022-08-23T23:35:49.871Z,24.50
2022-08-23T23:38:16.761Z,24.40
2022-08-23T23:40:44.020Z,24.30
2022-08-23T23:43:13.181Z,24.40
2022-08-23T23:45:41.094Z,24.50
2022-08-23T23:48:08.956Z,24.40
2022-08-23T23:50:39.626Z,24.40
2022-08-23T23:53:12.437Z,24.40
2022-08-23T23:55:39.534Z,24.40
2022-08-23T23:58:06.455Z,24.40
